sensor_id;sensor_type;location;lat;lon;timestamp;P1;durP1;ratioP1;P2;durP2;ratioP2
72557;SDS011;60583;50.094;8.748;2023-07-28T00:01:52;4.50;;;2.20;;
72557;SDS011;60583;50.094;8.748;2023-07-28T00:04:18;4.25;;;2.10;;
72557;SDS011;60583;50.094;8.748;2023-07-28T00:06:43;4.38;;;1.92;;
72557;SDS011;60583;50.094;8.748;2023-07-28T00:09:08;5.60;;;2.38;;
72557;SDS011;60583;50.094;8.748;2023-07-28T00:11:34;6.15;;;2.50;;
72557;SDS011;60583;50.094;8.748;2023-07-28T00:13:59;4.50;;;2.40;;
72557;SDS011;60583;50.094;8.748;2023-07-28T00:16:24;3.80;;;1.92;;
72557;SDS011;60583;50.094;8.748;2023-07-28T00:18:50;5.00;;;2.40;;
72557;SDS011;60583;50.094;8.748;2023-07-28T00:21:15;4.28;;;2.30;;
72557;SDS011;60583;50.094;8.748;2023-07-28T00:23:40;4.78;;;2.35;;
72557;SDS011;60583;50.094;8.748;2023-07-28T00:26:06;4.82;;;2.30;;
72557;SDS011;60583;50.094;8.748;2023-07-28T00:28:32;4.90;;;2.70;;
72557;SDS011;60583;50.094;8.748;2023-07-28T00:30:57;5.07;;;2.85;;
72557;SDS011;60583;50.094;8.748;2023-07-28T00:33:22;5.05;;;2.78;;
72557;SDS011;60583;50.094;8.748;2023-07-28T00:35:48;6.35;;;2.90;;
72557;SDS011;60583;50.094;8.748;2023-07-28T00:38:14;6.70;;;3.10;;
72557;SDS011;60583;50.094;8.748;2023-07-28T00:40:39;5.60;;;2.53;;
72557;SDS011;60583;50.094;8.748;2023-07-28T00:43:05;5.13;;;2.65;;
72557;SDS011;60583;50.094;8.748;2023-07-28T00:45:30;5.32;;;3.00;;
72557;SDS011;60583;50.094;8.748;2023-07-28T00:47:58;6.20;;;3.55;;
72557;SDS011;60583;50.094;8.748;2023-07-28T00:50:23;5.25;;;2.90;;
72557;SDS011;60583;50.094;8.748;2023-07-28T00:52:50;5.47;;;3.08;;
72557;SDS011;60583;50.094;8.748;2023-07-28T00:55:16;7.38;;;3.55;;
72557;SDS011;60583;50.094;8.748;2023-07-28T00:57:41;5.95;;;3.10;;
72557;SDS011;60583;50.094;8.748;2023-07-28T01:00:07;5.60;;;2.80;;
72557;SDS011;60583;50.094;8.748;2023-07-28T01:02:33;6.53;;;2.60;;
72557;SDS011;60583;50.094;8.748;2023-07-28T01:04:59;5.88;;;2.88;;
72557;SDS011;60583;50.094;8.748;2023-07-28T01:07:41;5.30;;;3.10;;
72557;SDS011;60583;50.094;8.748;2023-07-28T01:10:24;6.45;;;2.88;;
72557;SDS011;60583;50.094;8.748;2023-07-28T01:12:53;5.95;;;3.10;;
72557;SDS011;60583;50.094;8.748;2023-07-28T01:15:18;6.47;;;3.20;;
72557;SDS011;60583;50.094;8.748;2023-07-28T01:17:44;5.47;;;3.10;;
72557;SDS011;60583;50.094;8.748;2023-07-28T01:20:10;6.22;;;3.40;;
72557;SDS011;60583;50.094;8.748;2023-07-28T01:25:49;6.20;;;3.00;;
72557;SDS011;60583;50.094;8.748;2023-07-28T01:28:35;7.03;;;3.33;;
72557;SDS011;60583;50.094;8.748;2023-07-28T01:31:02;5.78;;;3.25;;
72557;SDS011;60583;50.094;8.748;2023-07-28T01:33:29;6.32;;;3.22;;
72557;SDS011;60583;50.094;8.748;2023-07-28T01:35:55;6.60;;;3.22;;
72557;SDS011;60583;50.094;8.748;2023-07-28T01:38:20;7.53;;;3.22;;
72557;SDS011;60583;50.094;8.748;2023-07-28T01:40:46;6.82;;;3.50;;
72557;SDS011;60583;50.094;8.748;2023-07-28T01:43:11;7.20;;;3.55;;
72557;SDS011;60583;50.094;8.748;2023-07-28T01:45:36;5.78;;;3.05;;
72557;SDS011;60583;50.094;8.748;2023-07-28T01:48:02;6.20;;;3.50;;
72557;SDS011;60583;50.094;8.748;2023-07-28T01:50:27;5.78;;;3.55;;
72557;SDS011;60583;50.094;8.748;2023-07-28T01:52:53;6.53;;;3.15;;
72557;SDS011;60583;50.094;8.748;2023-07-28T01:55:18;7.85;;;3.60;;
72557;SDS011;60583;50.094;8.748;2023-07-28T01:57:50;7.07;;;3.60;;
72557;SDS011;60583;50.094;8.748;2023-07-28T02:00:19;5.82;;;3.10;;
72557;SDS011;60583;50.094;8.748;2023-07-28T02:02:46;5.72;;;3.40;;
72557;SDS011;60583;50.094;8.748;2023-07-28T02:05:11;6.00;;;3.33;;
72557;SDS011;60583;50.094;8.748;2023-07-28T02:07:37;5.82;;;3.60;;
72557;SDS011;60583;50.094;8.748;2023-07-28T02:10:02;6.43;;;3.10;;
72557;SDS011;60583;50.094;8.748;2023-07-28T02:12:28;6.03;;;3.10;;
72557;SDS011;60583;50.094;8.748;2023-07-28T02:14:53;7.57;;;3.65;;
72557;SDS011;60583;50.094;8.748;2023-07-28T02:17:19;6.35;;;3.35;;
72557;SDS011;60583;50.094;8.748;2023-07-28T02:19:44;5.93;;;3.10;;
72557;SDS011;60583;50.094;8.748;2023-07-28T02:22:09;7.32;;;3.20;;
72557;SDS011;60583;50.094;8.748;2023-07-28T02:24:36;5.95;;;3.30;;
72557;SDS011;60583;50.094;8.748;2023-07-28T02:27:02;6.78;;;3.92;;
72557;SDS011;60583;50.094;8.748;2023-07-28T02:29:27;6.88;;;3.78;;
72557;SDS011;60583;50.094;8.748;2023-07-28T02:31:52;5.68;;;3.03;;
72557;SDS011;60583;50.094;8.748;2023-07-28T02:34:18;7.88;;;3.13;;
72557;SDS011;60583;50.094;8.748;2023-07-28T02:36:43;6.13;;;3.60;;
72557;SDS011;60583;50.094;8.748;2023-07-28T02:39:09;5.70;;;2.85;;
72557;SDS011;60583;50.094;8.748;2023-07-28T02:41:34;6.40;;;3.20;;
72557;SDS011;60583;50.094;8.748;2023-07-28T02:43:59;4.93;;;2.78;;
72557;SDS011;60583;50.094;8.748;2023-07-28T02:46:25;6.43;;;2.90;;
72557;SDS011;60583;50.094;8.748;2023-07-28T02:48:59;5.45;;;3.10;;
72557;SDS011;60583;50.094;8.748;2023-07-28T02:51:27;7.28;;;3.53;;
72557;SDS011;60583;50.094;8.748;2023-07-28T02:53:53;8.13;;;3.13;;
72557;SDS011;60583;50.094;8.748;2023-07-28T02:56:18;6.18;;;3.38;;
72557;SDS011;60583;50.094;8.748;2023-07-28T02:58:45;7.00;;;3.10;;
72557;SDS011;60583;50.094;8.748;2023-07-28T03:01:11;5.85;;;2.83;;
72557;SDS011;60583;50.094;8.748;2023-07-28T03:03:37;5.68;;;3.25;;
72557;SDS011;60583;50.094;8.748;2023-07-28T03:06:02;5.80;;;3.40;;
72557;SDS011;60583;50.094;8.748;2023-07-28T03:08:27;5.47;;;3.50;;
72557;SDS011;60583;50.094;8.748;2023-07-28T03:10:56;7.45;;;4.10;;
72557;SDS011;60583;50.094;8.748;2023-07-28T03:13:22;6.90;;;3.28;;
72557;SDS011;60583;50.094;8.748;2023-07-28T03:15:48;6.38;;;3.22;;
72557;SDS011;60583;50.094;8.748;2023-07-28T03:18:13;7.38;;;3.40;;
72557;SDS011;60583;50.094;8.748;2023-07-28T03:20:39;7.05;;;3.60;;
72557;SDS011;60583;50.094;8.748;2023-07-28T03:23:04;6.40;;;3.42;;
72557;SDS011;60583;50.094;8.748;2023-07-28T03:25:29;6.18;;;3.20;;
72557;SDS011;60583;50.094;8.748;2023-07-28T03:27:55;6.82;;;3.70;;
72557;SDS011;60583;50.094;8.748;2023-07-28T03:30:20;8.00;;;3.60;;
72557;SDS011;60583;50.094;8.748;2023-07-28T03:32:45;7.65;;;3.63;;
72557;SDS011;60583;50.094;8.748;2023-07-28T03:35:11;6.03;;;3.10;;
72557;SDS011;60583;50.094;8.748;2023-07-28T03:37:36;8.50;;;3.42;;
72557;SDS011;60583;50.094;8.748;2023-07-28T03:40:02;6.10;;;3.60;;
72557;SDS011;60583;50.094;8.748;2023-07-28T03:42:27;5.95;;;3.10;;
72557;SDS011;60583;50.094;8.748;2023-07-28T03:44:53;6.03;;;3.35;;
72557;SDS011;60583;50.094;8.748;2023-07-28T03:47:19;5.80;;;3.42;;
72557;SDS011;60583;50.094;8.748;2023-07-28T03:49:44;6.80;;;3.88;;
72557;SDS011;60583;50.094;8.748;2023-07-28T03:52:09;7.60;;;3.35;;
72557;SDS011;60583;50.094;8.748;2023-07-28T03:54:35;6.53;;;3.05;;
72557;SDS011;60583;50.094;8.748;2023-07-28T03:57:00;7.03;;;3.40;;
72557;SDS011;60583;50.094;8.748;2023-07-28T03:59:26;6.30;;;3.63;;
72557;SDS011;60583;50.094;8.748;2023-07-28T04:01:51;5.47;;;3.50;;
72557;SDS011;60583;50.094;8.748;2023-07-28T04:04:17;6.05;;;3.35;;
72557;SDS011;60583;50.094;8.748;2023-07-28T04:06:44;6.43;;;3.05;;
72557;SDS011;60583;50.094;8.748;2023-07-28T04:09:12;5.47;;;3.05;;
72557;SDS011;60583;50.094;8.748;2023-07-28T04:11:39;7.32;;;3.38;;
72557;SDS011;60583;50.094;8.748;2023-07-28T04:14:05;6.72;;;4.18;;
72557;SDS011;60583;50.094;8.748;2023-07-28T04:16:31;5.97;;;3.30;;
72557;SDS011;60583;50.094;8.748;2023-07-28T04:18:57;6.35;;;3.63;;
72557;SDS011;60583;50.094;8.748;2023-07-28T04:21:22;6.13;;;3.50;;
72557;SDS011;60583;50.094;8.748;2023-07-28T04:23:48;6.07;;;3.47;;
72557;SDS011;60583;50.094;8.748;2023-07-28T04:26:13;5.57;;;3.45;;
72557;SDS011;60583;50.094;8.748;2023-07-28T04:28:39;5.55;;;3.30;;
72557;SDS011;60583;50.094;8.748;2023-07-28T04:31:04;7.18;;;3.70;;
72557;SDS011;60583;50.094;8.748;2023-07-28T04:33:30;7.07;;;3.75;;
72557;SDS011;60583;50.094;8.748;2023-07-28T04:35:55;5.82;;;3.30;;
72557;SDS011;60583;50.094;8.748;2023-07-28T04:38:21;6.72;;;4.00;;
72557;SDS011;60583;50.094;8.748;2023-07-28T04:40:46;5.95;;;3.30;;
72557;SDS011;60583;50.094;8.748;2023-07-28T04:43:12;6.32;;;3.80;;
72557;SDS011;60583;50.094;8.748;2023-07-28T04:45:37;6.03;;;2.90;;
72557;SDS011;60583;50.094;8.748;2023-07-28T04:48:02;5.47;;;3.20;;
72557;SDS011;60583;50.094;8.748;2023-07-28T04:50:28;5.40;;;2.88;;
72557;SDS011;60583;50.094;8.748;2023-07-28T04:52:54;5.55;;;3.05;;
72557;SDS011;60583;50.094;8.748;2023-07-28T04:55:19;4.85;;;2.60;;
72557;SDS011;60583;50.094;8.748;2023-07-28T04:57:45;5.35;;;2.75;;
72557;SDS011;60583;50.094;8.748;2023-07-28T05:00:10;5.55;;;3.08;;
72557;SDS011;60583;50.094;8.748;2023-07-28T05:02:36;5.15;;;2.78;;
72557;SDS011;60583;50.094;8.748;2023-07-28T05:05:02;5.18;;;2.70;;
72557;SDS011;60583;50.094;8.748;2023-07-28T05:07:27;5.40;;;3.10;;
72557;SDS011;60583;50.094;8.748;2023-07-28T05:09:54;6.78;;;2.78;;
72557;SDS011;60583;50.094;8.748;2023-07-28T05:12:19;4.63;;;2.60;;
72557;SDS011;60583;50.094;8.748;2023-07-28T05:14:45;4.85;;;2.70;;
72557;SDS011;60583;50.094;8.748;2023-07-28T05:17:11;5.63;;;2.67;;
72557;SDS011;60583;50.094;8.748;2023-07-28T05:19:36;4.85;;;2.40;;
72557;SDS011;60583;50.094;8.748;2023-07-28T05:22:01;5.95;;;2.95;;
72557;SDS011;60583;50.094;8.748;2023-07-28T05:24:28;5.40;;;2.40;;
72557;SDS011;60583;50.094;8.748;2023-07-28T05:26:53;4.93;;;2.70;;
72557;SDS011;60583;50.094;8.748;2023-07-28T05:29:19;6.47;;;2.88;;
72557;SDS011;60583;50.094;8.748;2023-07-28T05:31:45;5.65;;;3.17;;
72557;SDS011;60583;50.094;8.748;2023-07-28T05:34:10;5.28;;;3.13;;
72557;SDS011;60583;50.094;8.748;2023-07-28T05:36:37;5.15;;;2.92;;
72557;SDS011;60583;50.094;8.748;2023-07-28T05:39:02;5.35;;;3.03;;
72557;SDS011;60583;50.094;8.748;2023-07-28T05:41:28;6.15;;;3.25;;
72557;SDS011;60583;50.094;8.748;2023-07-28T05:43:53;8.02;;;3.60;;
72557;SDS011;60583;50.094;8.748;2023-07-28T05:46:19;5.80;;;3.55;;
72557;SDS011;60583;50.094;8.748;2023-07-28T05:48:44;5.00;;;3.10;;
72557;SDS011;60583;50.094;8.748;2023-07-28T05:51:09;5.78;;;3.83;;
72557;SDS011;60583;50.094;8.748;2023-07-28T05:53:35;6.78;;;3.58;;
72557;SDS011;60583;50.094;8.748;2023-07-28T05:56:00;5.40;;;3.70;;
72557;SDS011;60583;50.094;8.748;2023-07-28T05:58:26;6.65;;;3.45;;
72557;SDS011;60583;50.094;8.748;2023-07-28T06:00:51;5.53;;;3.47;;
72557;SDS011;60583;50.094;8.748;2023-07-28T06:03:17;5.55;;;3.40;;
72557;SDS011;60583;50.094;8.748;2023-07-28T06:05:42;5.70;;;3.33;;
72557;SDS011;60583;50.094;8.748;2023-07-28T06:08:08;5.40;;;3.30;;
72557;SDS011;60583;50.094;8.748;2023-07-28T06:10:34;7.40;;;4.22;;
72557;SDS011;60583;50.094;8.748;2023-07-28T06:13:00;5.95;;;3.53;;
72557;SDS011;60583;50.094;8.748;2023-07-28T06:15:25;6.55;;;3.45;;
72557;SDS011;60583;50.094;8.748;2023-07-28T06:17:51;6.60;;;3.50;;
72557;SDS011;60583;50.094;8.748;2023-07-28T06:20:16;5.10;;;2.92;;
72557;SDS011;60583;50.094;8.748;2023-07-28T06:22:42;7.60;;;4.00;;
72557;SDS011;60583;50.094;8.748;2023-07-28T06:25:08;7.40;;;3.20;;
72557;SDS011;60583;50.094;8.748;2023-07-28T06:27:33;8.00;;;3.67;;
72557;SDS011;60583;50.094;8.748;2023-07-28T06:29:58;5.85;;;3.28;;
72557;SDS011;60583;50.094;8.748;2023-07-28T06:32:24;7.78;;;3.00;;
72557;SDS011;60583;50.094;8.748;2023-07-28T06:34:49;6.47;;;3.20;;
72557;SDS011;60583;50.094;8.748;2023-07-28T06:37:16;6.18;;;3.35;;
72557;SDS011;60583;50.094;8.748;2023-07-28T06:39:41;5.03;;;2.80;;
72557;SDS011;60583;50.094;8.748;2023-07-28T06:42:07;4.55;;;2.47;;
72557;SDS011;60583;50.094;8.748;2023-07-28T06:44:32;4.43;;;2.53;;
72557;SDS011;60583;50.094;8.748;2023-07-28T06:46:58;5.53;;;2.50;;
72557;SDS011;60583;50.094;8.748;2023-07-28T06:49:23;4.88;;;2.75;;
72557;SDS011;60583;50.094;8.748;2023-07-28T06:51:49;4.78;;;2.40;;
72557;SDS011;60583;50.094;8.748;2023-07-28T06:54:14;5.40;;;2.72;;
72557;SDS011;60583;50.094;8.748;2023-07-28T06:56:40;5.57;;;2.72;;
72557;SDS011;60583;50.094;8.748;2023-07-28T06:59:06;4.28;;;1.95;;
72557;SDS011;60583;50.094;8.748;2023-07-28T07:01:32;4.13;;;2.33;;
72557;SDS011;60583;50.094;8.748;2023-07-28T07:03:58;4.60;;;1.88;;
72557;SDS011;60583;50.094;8.748;2023-07-28T07:06:23;4.15;;;2.17;;
72557;SDS011;60583;50.094;8.748;2023-07-28T07:08:48;6.25;;;2.35;;
72557;SDS011;60583;50.094;8.748;2023-07-28T07:11:14;3.67;;;1.80;;
72557;SDS011;60583;50.094;8.748;2023-07-28T07:13:40;3.63;;;1.70;;
72557;SDS011;60583;50.094;8.748;2023-07-28T07:16:05;3.65;;;1.60;;
72557;SDS011;60583;50.094;8.748;2023-07-28T07:18:38;3.45;;;1.77;;
72557;SDS011;60583;50.094;8.748;2023-07-28T07:21:04;3.90;;;1.80;;
72557;SDS011;60583;50.094;8.748;2023-07-28T07:23:31;4.18;;;1.88;;
72557;SDS011;60583;50.094;8.748;2023-07-28T07:25:56;5.72;;;1.88;;
72557;SDS011;60583;50.094;8.748;2023-07-28T07:28:22;4.22;;;2.03;;
72557;SDS011;60583;50.094;8.748;2023-07-28T07:30:47;3.88;;;1.65;;
72557;SDS011;60583;50.094;8.748;2023-07-28T07:33:13;4.47;;;2.08;;
72557;SDS011;60583;50.094;8.748;2023-07-28T07:35:39;4.00;;;1.80;;
72557;SDS011;60583;50.094;8.748;2023-07-28T07:38:04;3.80;;;1.90;;
72557;SDS011;60583;50.094;8.748;2023-07-28T07:40:34;3.72;;;1.40;;
72557;SDS011;60583;50.094;8.748;2023-07-28T07:43:06;4.82;;;1.90;;
72557;SDS011;60583;50.094;8.748;2023-07-28T07:45:31;3.97;;;1.80;;
72557;SDS011;60583;50.094;8.748;2023-07-28T07:48:00;3.72;;;1.60;;
72557;SDS011;60583;50.094;8.748;2023-07-28T07:50:25;3.17;;;1.48;;
72557;SDS011;60583;50.094;8.748;2023-07-28T07:52:51;3.65;;;1.77;;
72557;SDS011;60583;50.094;8.748;2023-07-28T07:55:16;3.00;;;1.60;;
72557;SDS011;60583;50.094;8.748;2023-07-28T07:57:42;3.72;;;1.30;;
72557;SDS011;60583;50.094;8.748;2023-07-28T08:00:07;2.60;;;1.30;;
72557;SDS011;60583;50.094;8.748;2023-07-28T08:02:34;3.08;;;1.40;;
72557;SDS011;60583;50.094;8.748;2023-07-28T08:04:59;3.03;;;1.45;;
72557;SDS011;60583;50.094;8.748;2023-07-28T08:07:25;3.20;;;1.30;;
72557;SDS011;60583;50.094;8.748;2023-07-28T08:09:51;2.83;;;1.30;;
72557;SDS011;60583;50.094;8.748;2023-07-28T08:12:16;3.03;;;1.10;;
72557;SDS011;60583;50.094;8.748;2023-07-28T08:14:42;2.92;;;1.13;;
72557;SDS011;60583;50.094;8.748;2023-07-28T08:17:08;3.00;;;1.20;;
72557;SDS011;60583;50.094;8.748;2023-07-28T08:19:34;3.05;;;1.23;;
72557;SDS011;60583;50.094;8.748;2023-07-28T08:22:00;2.58;;;1.02;;
72557;SDS011;60583;50.094;8.748;2023-07-28T08:24:28;3.13;;;1.20;;
72557;SDS011;60583;50.094;8.748;2023-07-28T08:26:53;2.80;;;1.00;;
72557;SDS011;60583;50.094;8.748;2023-07-28T08:29:19;2.30;;;1.00;;
72557;SDS011;60583;50.094;8.748;2023-07-28T08:31:44;4.18;;;1.27;;
72557;SDS011;60583;50.094;8.748;2023-07-28T08:34:10;2.22;;;0.90;;
72557;SDS011;60583;50.094;8.748;2023-07-28T08:36:35;1.90;;;0.80;;
72557;SDS011;60583;50.094;8.748;2023-07-28T08:39:00;2.90;;;1.00;;
72557;SDS011;60583;50.094;8.748;2023-07-28T08:41:26;2.03;;;0.82;;
72557;SDS011;60583;50.094;8.748;2023-07-28T08:43:52;1.63;;;0.80;;
72557;SDS011;60583;50.094;8.748;2023-07-28T08:46:19;2.20;;;0.90;;
72557;SDS011;60583;50.094;8.748;2023-07-28T08:48:45;2.03;;;0.80;;
72557;SDS011;60583;50.094;8.748;2023-07-28T08:51:12;2.75;;;0.90;;
72557;SDS011;60583;50.094;8.748;2023-07-28T08:53:37;2.38;;;1.00;;
72557;SDS011;60583;50.094;8.748;2023-07-28T08:56:03;1.95;;;0.80;;
72557;SDS011;60583;50.094;8.748;2023-07-28T08:58:29;2.33;;;0.80;;
72557;SDS011;60583;50.094;8.748;2023-07-28T09:00:54;1.98;;;0.77;;
72557;SDS011;60583;50.094;8.748;2023-07-28T09:03:20;1.92;;;0.80;;
72557;SDS011;60583;50.094;8.748;2023-07-28T09:05:46;2.13;;;0.70;;
72557;SDS011;60583;50.094;8.748;2023-07-28T09:08:13;2.13;;;0.90;;
72557;SDS011;60583;50.094;8.748;2023-07-28T09:10:40;2.38;;;0.80;;
72557;SDS011;60583;50.094;8.748;2023-07-28T09:13:10;1.45;;;0.70;;
72557;SDS011;60583;50.094;8.748;2023-07-28T09:15:37;2.45;;;0.75;;
72557;SDS011;60583;50.094;8.748;2023-07-28T09:18:03;2.30;;;0.88;;
72557;SDS011;60583;50.094;8.748;2023-07-28T09:20:35;1.85;;;0.75;;
72557;SDS011;60583;50.094;8.748;2023-07-28T09:23:02;1.33;;;0.70;;
72557;SDS011;60583;50.094;8.748;2023-07-28T09:25:28;2.67;;;0.80;;
72557;SDS011;60583;50.094;8.748;2023-07-28T09:27:55;1.70;;;0.60;;
72557;SDS011;60583;50.094;8.748;2023-07-28T09:30:21;1.63;;;0.70;;
72557;SDS011;60583;50.094;8.748;2023-07-28T09:32:49;2.08;;;0.82;;
72557;SDS011;60583;50.094;8.748;2023-07-28T09:35:16;1.92;;;0.90;;
72557;SDS011;60583;50.094;8.748;2023-07-28T09:37:42;2.92;;;0.90;;
72557;SDS011;60583;50.094;8.748;2023-07-28T09:40:13;2.60;;;1.10;;
72557;SDS011;60583;50.094;8.748;2023-07-28T09:42:43;2.38;;;0.90;;
72557;SDS011;60583;50.094;8.748;2023-07-28T09:45:14;2.40;;;0.90;;
72557;SDS011;60583;50.094;8.748;2023-07-28T09:47:40;2.15;;;1.08;;
72557;SDS011;60583;50.094;8.748;2023-07-28T09:50:13;2.10;;;0.95;;
72557;SDS011;60583;50.094;8.748;2023-07-28T09:52:43;1.90;;;0.82;;
72557;SDS011;60583;50.094;8.748;2023-07-28T09:55:11;3.20;;;0.80;;
72557;SDS011;60583;50.094;8.748;2023-07-28T09:57:46;1.95;;;0.80;;
72557;SDS011;60583;50.094;8.748;2023-07-28T10:00:16;2.08;;;0.93;;
72557;SDS011;60583;50.094;8.748;2023-07-28T10:02:43;2.72;;;0.88;;
72557;SDS011;60583;50.094;8.748;2023-07-28T10:05:09;2.10;;;0.70;;
72557;SDS011;60583;50.094;8.748;2023-07-28T10:07:39;2.35;;;0.90;;
72557;SDS011;60583;50.094;8.748;2023-07-28T10:12:46;3.10;;;0.80;;
72557;SDS011;60583;50.094;8.748;2023-07-28T10:15:14;1.58;;;0.70;;
72557;SDS011;60583;50.094;8.748;2023-07-28T10:17:45;1.83;;;0.73;;
72557;SDS011;60583;50.094;8.748;2023-07-28T10:20:27;1.80;;;0.80;;
72557;SDS011;60583;50.094;8.748;2023-07-28T10:23:17;1.60;;;0.70;;
72557;SDS011;60583;50.094;8.748;2023-07-28T10:25:43;3.22;;;1.70;;
72557;SDS011;60583;50.094;8.748;2023-07-28T10:30:56;1.92;;;0.82;;
72557;SDS011;60583;50.094;8.748;2023-07-28T10:35:53;2.58;;;0.80;;
72557;SDS011;60583;50.094;8.748;2023-07-28T10:38:29;2.47;;;1.35;;
72557;SDS011;60583;50.094;8.748;2023-07-28T10:41:18;2.63;;;1.13;;
72557;SDS011;60583;50.094;8.748;2023-07-28T10:43:44;1.75;;;1.00;;
72557;SDS011;60583;50.094;8.748;2023-07-28T10:46:12;2.20;;;0.90;;
72557;SDS011;60583;50.094;8.748;2023-07-28T10:48:41;1.92;;;0.85;;
72557;SDS011;60583;50.094;8.748;2023-07-28T10:51:09;1.90;;;0.80;;
72557;SDS011;60583;50.094;8.748;2023-07-28T10:53:36;2.22;;;0.80;;
72557;SDS011;60583;50.094;8.748;2023-07-28T10:56:02;1.95;;;0.80;;
72557;SDS011;60583;50.094;8.748;2023-07-28T10:58:29;2.80;;;0.80;;
72557;SDS011;60583;50.094;8.748;2023-07-28T11:00:56;2.30;;;0.98;;
72557;SDS011;60583;50.094;8.748;2023-07-28T11:03:22;3.10;;;1.00;;
72557;SDS011;60583;50.094;8.748;2023-07-28T11:05:54;1.90;;;0.80;;
72557;SDS011;60583;50.094;8.748;2023-07-28T11:08:24;1.83;;;0.90;;
72557;SDS011;60583;50.094;8.748;2023-07-28T11:10:49;1.90;;;0.70;;
72557;SDS011;60583;50.094;8.748;2023-07-28T11:13:15;2.03;;;1.00;;
72557;SDS011;60583;50.094;8.748;2023-07-28T11:15:40;1.55;;;0.70;;
72557;SDS011;60583;50.094;8.748;2023-07-28T11:18:06;2.95;;;0.82;;
72557;SDS011;60583;50.094;8.748;2023-07-28T11:20:31;1.90;;;0.90;;
72557;SDS011;60583;50.094;8.748;2023-07-28T11:22:58;2.60;;;1.10;;
72557;SDS011;60583;50.094;8.748;2023-07-28T11:25:25;2.28;;;1.08;;
72557;SDS011;60583;50.094;8.748;2023-07-28T11:27:52;3.08;;;1.05;;
72557;SDS011;60583;50.094;8.748;2023-07-28T11:30:18;2.47;;;1.17;;
72557;SDS011;60583;50.094;8.748;2023-07-28T11:32:47;3.78;;;1.23;;
72557;SDS011;60583;50.094;8.748;2023-07-28T11:35:15;3.45;;;1.63;;
72557;SDS011;60583;50.094;8.748;2023-07-28T11:37:42;4.07;;;1.50;;
72557;SDS011;60583;50.094;8.748;2023-07-28T11:40:10;3.30;;;1.50;;
72557;SDS011;60583;50.094;8.748;2023-07-28T11:42:41;3.90;;;2.10;;
72557;SDS011;60583;50.094;8.748;2023-07-28T11:45:09;3.22;;;1.58;;
72557;SDS011;60583;50.094;8.748;2023-07-28T11:47:37;4.45;;;1.95;;
72557;SDS011;60583;50.094;8.748;2023-07-28T11:50:03;4.18;;;1.90;;
72557;SDS011;60583;50.094;8.748;2023-07-28T11:54:58;4.95;;;2.40;;
72557;SDS011;60583;50.094;8.748;2023-07-28T11:57:28;5.03;;;2.20;;
72557;SDS011;60583;50.094;8.748;2023-07-28T11:59:56;4.32;;;2.42;;
72557;SDS011;60583;50.094;8.748;2023-07-28T12:02:30;4.25;;;2.00;;
72557;SDS011;60583;50.094;8.748;2023-07-28T12:04:57;4.03;;;2.00;;
72557;SDS011;60583;50.094;8.748;2023-07-28T12:07:29;3.83;;;2.17;;
72557;SDS011;60583;50.094;8.748;2023-07-28T12:10:02;4.20;;;2.15;;
72557;SDS011;60583;50.094;8.748;2023-07-28T12:12:38;4.65;;;2.10;;
72557;SDS011;60583;50.094;8.748;2023-07-28T12:15:27;5.93;;;2.30;;
72557;SDS011;60583;50.094;8.748;2023-07-28T12:18:11;5.10;;;2.53;;
72557;SDS011;60583;50.094;8.748;2023-07-28T12:20:39;4.43;;;2.88;;
72557;SDS011;60583;50.094;8.748;2023-07-28T12:23:07;5.30;;;2.85;;
72557;SDS011;60583;50.094;8.748;2023-07-28T12:25:34;5.20;;;2.83;;
72557;SDS011;60583;50.094;8.748;2023-07-28T12:28:01;5.30;;;2.88;;
72557;SDS011;60583;50.094;8.748;2023-07-28T12:30:27;4.70;;;2.55;;
72557;SDS011;60583;50.094;8.748;2023-07-28T12:32:52;6.32;;;4.63;;
72557;SDS011;60583;50.094;8.748;2023-07-28T12:35:18;4.50;;;2.60;;
72557;SDS011;60583;50.094;8.748;2023-07-28T12:37:43;5.28;;;2.85;;
72557;SDS011;60583;50.094;8.748;2023-07-28T12:40:09;5.90;;;3.40;;
72557;SDS011;60583;50.094;8.748;2023-07-28T12:42:35;7.00;;;3.20;;
72557;SDS011;60583;50.094;8.748;2023-07-28T12:45:01;6.28;;;2.95;;
72557;SDS011;60583;50.094;8.748;2023-07-28T12:47:26;5.25;;;2.58;;
72557;SDS011;60583;50.094;8.748;2023-07-28T12:49:52;4.57;;;2.55;;
72557;SDS011;60583;50.094;8.748;2023-07-28T12:52:18;4.50;;;2.40;;
72557;SDS011;60583;50.094;8.748;2023-07-28T12:54:43;4.95;;;2.50;;
72557;SDS011;60583;50.094;8.748;2023-07-28T12:57:09;4.13;;;2.10;;
72557;SDS011;60583;50.094;8.748;2023-07-28T12:59:37;4.45;;;2.30;;
72557;SDS011;60583;50.094;8.748;2023-07-28T13:02:03;5.15;;;2.45;;
72557;SDS011;60583;50.094;8.748;2023-07-28T13:04:28;4.18;;;2.13;;
72557;SDS011;60583;50.094;8.748;2023-07-28T13:06:53;4.07;;;2.07;;
72557;SDS011;60583;50.094;8.748;2023-07-28T13:09:20;3.88;;;2.20;;
72557;SDS011;60583;50.094;8.748;2023-07-28T13:11:46;4.93;;;2.25;;
72557;SDS011;60583;50.094;8.748;2023-07-28T13:14:11;5.13;;;2.33;;
72557;SDS011;60583;50.094;8.748;2023-07-28T13:16:36;4.45;;;2.38;;
72557;SDS011;60583;50.094;8.748;2023-07-28T13:19:03;3.90;;;2.13;;
72557;SDS011;60583;50.094;8.748;2023-07-28T13:21:31;3.63;;;2.00;;
72557;SDS011;60583;50.094;8.748;2023-07-28T13:23:58;4.85;;;1.90;;
72557;SDS011;60583;50.094;8.748;2023-07-28T13:26:24;3.50;;;1.70;;
72557;SDS011;60583;50.094;8.748;2023-07-28T13:28:52;3.92;;;2.00;;
72557;SDS011;60583;50.094;8.748;2023-07-28T13:31:18;5.22;;;2.17;;
72557;SDS011;60583;50.094;8.748;2023-07-28T13:33:43;4.25;;;1.90;;
72557;SDS011;60583;50.094;8.748;2023-07-28T13:36:10;4.75;;;2.13;;
72557;SDS011;60583;50.094;8.748;2023-07-28T13:38:37;3.90;;;2.10;;
72557;SDS011;60583;50.094;8.748;2023-07-28T13:41:05;4.30;;;2.30;;
72557;SDS011;60583;50.094;8.748;2023-07-28T13:43:31;7.82;;;4.25;;
72557;SDS011;60583;50.094;8.748;2023-07-28T13:45:58;4.22;;;2.10;;
72557;SDS011;60583;50.094;8.748;2023-07-28T13:48:23;4.07;;;1.90;;
72557;SDS011;60583;50.094;8.748;2023-07-28T13:50:49;5.18;;;1.83;;
72557;SDS011;60583;50.094;8.748;2023-07-28T13:53:14;4.05;;;1.95;;
72557;SDS011;60583;50.094;8.748;2023-07-28T13:55:40;6.57;;;2.10;;
72557;SDS011;60583;50.094;8.748;2023-07-28T13:58:05;5.05;;;2.55;;
72557;SDS011;60583;50.094;8.748;2023-07-28T14:00:31;5.47;;;2.63;;
72557;SDS011;60583;50.094;8.748;2023-07-28T14:02:57;3.53;;;1.90;;
72557;SDS011;60583;50.094;8.748;2023-07-28T14:05:22;4.30;;;2.10;;
72557;SDS011;60583;50.094;8.748;2023-07-28T14:07:48;6.57;;;3.95;;
72557;SDS011;60583;50.094;8.748;2023-07-28T14:10:13;3.60;;;2.10;;
72557;SDS011;60583;50.094;8.748;2023-07-28T14:12:39;4.35;;;2.20;;
72557;SDS011;60583;50.094;8.748;2023-07-28T14:15:04;3.80;;;2.08;;
72557;SDS011;60583;50.094;8.748;2023-07-28T14:17:32;5.97;;;2.50;;
72557;SDS011;60583;50.094;8.748;2023-07-28T14:19:58;4.60;;;2.28;;
72557;SDS011;60583;50.094;8.748;2023-07-28T14:22:23;4.72;;;2.50;;
72557;SDS011;60583;50.094;8.748;2023-07-28T14:24:49;4.05;;;2.20;;
72557;SDS011;60583;50.094;8.748;2023-07-28T14:27:14;8.55;;;2.35;;
72557;SDS011;60583;50.094;8.748;2023-07-28T14:29:39;4.47;;;2.47;;
72557;SDS011;60583;50.094;8.748;2023-07-28T14:32:05;4.88;;;2.33;;
72557;SDS011;60583;50.094;8.748;2023-07-28T14:34:31;5.03;;;2.55;;
72557;SDS011;60583;50.094;8.748;2023-07-28T14:36:56;3.80;;;2.10;;
72557;SDS011;60583;50.094;8.748;2023-07-28T14:39:21;4.88;;;2.30;;
72557;SDS011;60583;50.094;8.748;2023-07-28T14:41:47;4.03;;;2.40;;
72557;SDS011;60583;50.094;8.748;2023-07-28T14:44:12;5.13;;;2.45;;
72557;SDS011;60583;50.094;8.748;2023-07-28T14:46:38;5.28;;;2.70;;
72557;SDS011;60583;50.094;8.748;2023-07-28T14:49:03;5.05;;;2.45;;
72557;SDS011;60583;50.094;8.748;2023-07-28T14:51:28;4.93;;;2.72;;
72557;SDS011;60583;50.094;8.748;2023-07-28T14:53:54;4.68;;;3.08;;
72557;SDS011;60583;50.094;8.748;2023-07-28T14:56:23;5.32;;;2.90;;
72557;SDS011;60583;50.094;8.748;2023-07-28T14:58:49;8.80;;;2.72;;